createdAt,value
2022-08-21T03:57:36.606Z,22.62
2022-08-21T04:00:51.079Z,22.61
2022-08-21T04:06:37.753Z,22.41
2022-08-21T04:09:11.741Z,22.55
2022-08-21T04:11:42.909Z,22.59
2022-08-21T04:14:16.639Z,22.65
2022-08-21T04:16:50.009Z,22.66
2022-08-21T04:24:53.489Z,22.60
2022-08-21T04:27:29.952Z,22.63
2022-08-21T04:30:09.410Z,22.63
2022-08-21T04:32:49.872Z,22.65
2022-08-21T04:35:30.147Z,22.63
2022-08-21T04:38:03.039Z,22.66
2022-08-21T04:40:52.259Z,22.64
2022-08-21T04:43:25.809Z,22.66
2022-08-21T04:45:54.177Z,22.65
2022-08-21T04:48:28.305Z,22.69
2022-08-21T04:51:11.927Z,22.71
2022-08-21T04:53:45.229Z,22.68
2022-08-21T04:56:39.042Z,22.65
2022-08-21T04:59:10.781Z,22.62
2022-08-21T05:01:57.365Z,22.64
2022-08-21T05:04:36.601Z,22.63
2022-08-21T05:10:02.857Z,22.69
2022-08-21T05:12:42.248Z,22.66
2022-08-21T05:18:28.332Z,22.40
2022-08-21T05:24:45.606Z,22.55
2022-08-21T06:03:22.067Z,22.50
2022-08-21T09:20:29.124Z,22.57
2022-08-21T09:41:05.838Z,22.63
2022-08-21T10:07:31.809Z,22.69
2022-08-21T10:13:26.452Z,22.72
2022-08-21T10:16:51.480Z,22.68
2022-08-21T10:20:00.065Z,22.65
2022-08-21T10:22:50.133Z,22.71
2022-08-21T10:29:29.592Z,22.70
2022-08-21T10:32:25.793Z,22.68
2022-08-21T10:39:25.730Z,22.67
2022-08-21T10:42:00.970Z,22.69
2022-08-21T10:47:54.843Z,22.68
2022-08-21T10:50:41.466Z,22.65
2022-08-21T10:56:27.485Z,22.66
2022-08-21T10:59:17.495Z,22.73
2022-08-21T11:08:35.875Z,22.64
2022-08-21T11:11:35.897Z,22.69
2022-08-21T11:14:37.929Z,22.64
2022-08-21T12:01:08.174Z,22.78
2022-08-21T12:11:04.074Z,22.82
2022-08-21T12:13:42.159Z,22.83
2022-08-21T12:16:40.731Z,22.83
2022-08-21T12:30:49.391Z,22.83
2022-08-21T14:09:20.742Z,22.50
2022-08-21T14:23:02.839Z,22.34
2022-08-21T14:25:47.426Z,22.36
2022-08-21T14:28:44.975Z,22.38
2022-08-21T14:31:21.706Z,22.36
2022-08-21T14:33:52.765Z,22.42
2022-08-21T14:36:21.146Z,22.41
2022-08-21T14:38:51.400Z,22.35
2022-08-21T14:41:26.618Z,22.37
2022-08-21T14:44:05.762Z,22.33
2022-08-21T14:46:45.827Z,22.35
2022-08-21T14:49:22.379Z,22.28
2022-08-21T14:51:54.771Z,22.29
2022-08-21T14:54:23.188Z,22.26
2022-08-21T14:57:00.844Z,22.30
2022-08-21T14:59:30.057Z,22.25
2022-08-21T15:01:57.516Z,22.24
2022-08-21T15:04:25.110Z,22.21
2022-08-21T15:06:55.540Z,22.25
2022-08-21T15:09:22.894Z,22.18
2022-08-21T15:11:50.173Z,22.18
2022-08-21T15:14:21.101Z,22.19
2022-08-21T15:16:49.287Z,22.19
2022-08-21T15:19:16.478Z,22.12
2022-08-21T15:21:43.690Z,22.13
2022-08-21T15:24:10.960Z,22.11
2022-08-21T15:26:38.184Z,22.11
2022-08-21T15:29:06.772Z,22.10
2022-08-21T15:31:34.495Z,22.07
2022-08-21T15:34:01.773Z,22.06
2022-08-21T15:36:28.909Z,22.04
2022-08-21T15:38:56.169Z,22.06
2022-08-21T15:41:23.588Z,22.01
2022-08-21T15:43:52.094Z,21.99
2022-08-21T15:46:19.976Z,21.97
2022-08-21T15:48:49.893Z,21.98
2022-08-21T15:51:17.800Z,21.94
2022-08-21T15:53:45.705Z,21.93
2022-08-21T15:56:38.032Z,21.89
2022-08-21T15:59:10.279Z,21.89
2022-08-21T16:01:44.777Z,21.83
2022-08-21T16:04:18.789Z,21.85
2022-08-21T16:06:55.585Z,21.83
2022-08-21T16:09:25.582Z,21.78
2022-08-21T16:11:52.762Z,21.78
2022-08-21T16:14:19.948Z,21.75
2022-08-21T16:16:47.037Z,21.73
2022-08-21T16:19:14.246Z,21.73
2022-08-21T16:21:43.063Z,21.72
2022-08-21T16:24:10.214Z,21.69
2022-08-21T16:26:37.390Z,21.66
2022-08-21T16:29:05.139Z,21.65
2022-08-21T16:31:33.239Z,21.62
2022-08-21T16:34:00.876Z,21.62
2022-08-21T16:36:28.122Z,21.57
2022-08-21T16:38:58.585Z,21.58
2022-08-21T16:41:28.834Z,21.59
2022-08-21T16:43:56.754Z,21.54
2022-08-21T16:46:24.961Z,21.55
2022-08-21T16:48:52.192Z,21.54
2022-08-21T16:51:19.506Z,21.50
2022-08-21T16:53:46.632Z,21.48
2022-08-21T16:56:18.596Z,21.51
2022-08-21T16:58:48.315Z,21.46
2022-08-21T17:01:19.908Z,21.46
2022-08-21T17:03:48.942Z,21.47
2022-08-21T17:06:16.215Z,21.41
2022-08-21T17:08:47.052Z,21.45
2022-08-21T17:11:38.562Z,21.38
2022-08-21T17:14:08.351Z,21.38
2022-08-21T17:16:35.962Z,21.34
2022-08-21T17:19:39.166Z,21.27
2022-08-21T17:22:09.434Z,21.33
2022-08-21T17:24:40.083Z,21.31
2022-08-21T17:27:08.263Z,21.30
2022-08-21T17:29:37.917Z,21.28
2022-08-21T17:32:08.405Z,21.29
2022-08-21T17:34:36.190Z,21.28
2022-08-21T17:37:04.011Z,21.29
2022-08-21T17:42:15.056Z,21.22
2022-08-21T17:44:44.489Z,21.24
2022-08-21T17:47:11.900Z,21.22
2022-08-21T17:49:40.338Z,21.19
2022-08-21T17:52:07.785Z,21.19
2022-08-21T17:54:36.224Z,21.17
2022-08-21T17:57:03.520Z,21.13
2022-08-21T17:59:30.740Z,21.14
2022-08-21T18:02:01.698Z,21.13
2022-08-21T18:04:29.641Z,21.10
2022-08-21T18:06:56.904Z,21.10
2022-08-21T18:09:28.313Z,21.06
2022-08-21T18:11:56.649Z,21.08
2022-08-21T18:14:27.885Z,21.04
2022-08-21T18:16:55.711Z,21.02
2022-08-21T18:19:30.679Z,21.03
2022-08-21T18:22:02.646Z,20.99
2022-08-21T18:24:31.984Z,20.98
2022-08-21T18:27:01.553Z,20.96
2022-08-21T18:29:30.239Z,20.95
2022-08-21T18:31:58.289Z,20.93
2022-08-21T18:34:35.108Z,20.97
2022-08-21T18:53:36.680Z,20.79
2022-08-21T18:59:34.674Z,20.70
2022-08-21T19:02:21.545Z,20.79
2022-08-21T19:05:23.326Z,20.73
2022-08-21T19:11:26.135Z,20.67
2022-08-21T19:14:26.755Z,20.67
2022-08-21T19:17:19.204Z,20.70
2022-08-21T19:20:27.151Z,20.67
2022-08-21T19:26:06.890Z,20.61
2022-08-21T19:28:53.531Z,20.64
2022-08-21T19:31:41.982Z,20.65
2022-08-21T19:34:23.239Z,20.63
2022-08-21T19:36:52.462Z,20.64
2022-08-21T19:39:20.070Z,20.62
2022-08-21T19:41:51.097Z,20.62
2022-08-21T19:44:22.391Z,20.63
2022-08-21T19:46:51.231Z,20.58
2022-08-21T19:49:21.011Z,20.60
2022-08-21T19:51:49.560Z,20.59
2022-08-21T19:54:25.568Z,20.59
2022-08-21T19:56:55.766Z,20.56
2022-08-21T19:59:24.910Z,20.55
2022-08-21T20:02:10.956Z,20.51
2022-08-21T20:04:38.276Z,20.54
2022-08-21T20:09:53.797Z,20.48
2022-08-21T20:12:20.848Z,20.50
2022-08-21T20:14:48.161Z,20.49
2022-08-21T20:17:16.474Z,20.52
2022-08-21T20:19:45.227Z,20.47
2022-08-21T20:22:12.657Z,20.47
2022-08-21T20:24:42.279Z,20.45
2022-08-21T20:27:12.587Z,20.47
2022-08-21T20:29:39.769Z,20.44
2022-08-21T20:32:12.303Z,20.48
2022-08-21T20:34:40.532Z,20.43
2022-08-21T20:37:09.161Z,20.43
2022-08-21T20:39:36.627Z,20.43
2022-08-21T20:42:04.967Z,20.45
2022-08-21T20:44:34.618Z,20.45
2022-08-21T20:47:06.532Z,20.42
2022-08-21T20:49:41.357Z,20.43
2022-08-21T20:52:08.511Z,20.42
2022-08-21T20:54:44.934Z,20.41
2022-08-21T20:57:26.131Z,20.38
2022-08-21T21:00:21.114Z,20.42
2022-08-21T21:02:54.215Z,20.38
2022-08-21T21:05:28.812Z,20.33
2022-08-21T21:08:04.471Z,20.37
2022-08-21T21:10:59.461Z,20.37
2022-08-21T21:13:30.187Z,20.33
2022-08-21T21:16:02.290Z,20.32
2022-08-21T21:18:40.743Z,20.34
2022-08-21T21:21:32.974Z,20.31
2022-08-21T21:24:21.958Z,20.27
2022-08-21T21:26:57.646Z,20.28
2022-08-21T21:29:35.080Z,20.30
2022-08-21T21:32:04.254Z,20.27
2022-08-21T21:34:35.997Z,20.31
2022-08-21T21:37:13.438Z,20.30
2022-08-21T21:40:00.046Z,20.24
2022-08-21T21:42:49.312Z,20.26
2022-08-21T21:45:23.335Z,20.24
2022-08-21T21:48:46.437Z,20.27
2022-08-21T21:51:27.146Z,20.21
2022-08-21T21:54:20.785Z,20.19
2022-08-21T21:57:10.867Z,20.22
2022-08-21T21:59:44.474Z,20.17
2022-08-21T22:02:25.233Z,20.22
2022-08-21T22:05:27.972Z,20.15
2022-08-21T22:08:02.251Z,20.17
2022-08-21T22:10:45.247Z,20.17
2022-08-21T22:13:25.300Z,20.19
2022-08-21T22:15:54.637Z,20.14
2022-08-21T22:18:28.931Z,20.17
2022-08-21T22:20:59.112Z,20.19
2022-08-21T22:23:30.656Z,20.19
2022-08-21T22:26:03.780Z,20.13
2022-08-21T22:28:31.549Z,20.12
2022-08-21T22:31:18.112Z,20.14
2022-08-21T22:34:18.486Z,20.13
2022-08-21T22:37:00.730Z,20.11
2022-08-21T22:39:39.050Z,20.13
2022-08-21T22:45:09.409Z,20.08
2022-08-21T22:47:44.991Z,20.10
2022-08-21T22:50:21.075Z,20.13
2022-08-21T22:52:53.183Z,20.11
2022-08-21T22:55:29.346Z,20.11
2022-08-21T22:58:24.254Z,20.07
2022-08-21T23:00:57.931Z,20.09
2022-08-21T23:03:51.482Z,20.08
2022-08-21T23:06:36.367Z,20.05
2022-08-21T23:09:05.317Z,20.02
2022-08-21T23:11:40.091Z,20.07
2022-08-21T23:14:07.451Z,20.03
2022-08-21T23:16:55.669Z,20.08
2022-08-21T23:19:53.332Z,20.05
2022-08-21T23:22:35.738Z,20.05
2022-08-21T23:25:28.222Z,20.03
2022-08-21T23:28:34.010Z,19.97
2022-08-21T23:31:16.348Z,20.02
2022-08-21T23:34:01.192Z,20.01
2022-08-21T23:37:48.461Z,19.99
2022-08-21T23:40:18.846Z,19.96
2022-08-21T23:43:04.709Z,19.98
2022-08-21T23:45:37.901Z,20.00
2022-08-21T23:48:29.571Z,20.00
2022-08-21T23:51:04.756Z,19.98
2022-08-21T23:53:50.316Z,20.00
2022-08-21T23:57:10.642Z,19.89
2022-08-21T23:59:48.705Z,19.94
